.
WxDataArchive / Data Records for 2010-11-10
2010-11-09 November 2010 2010-11-11

Data Records for Wednesday, 10 November 2010

Time	Temp	Chill	HIndex	Humid	Dewpt	 Wind 	HiWind	WindDir	Rain 	Barom 
-----	----	-----	------	-----	-----	------	------	-------	-----	----- 
00:00	41.9	41.9	41.9	77	35.2	0	1	90	0.00	30.088 
00:05	41.8	41.8	41.8	77	35.1	0	1	90	0.00	30.088 
00:10	41.6	41.6	41.6	78	35.3	0	1	90	0.00	30.088 
00:15	41.3	41.3	41.3	78	35.0	0	1	90	0.00	30.094 
00:20	41.2	41.2	41.2	79	35.2	0	2	90	0.00	30.094 
00:25	41.2	41.2	41.2	80	35.5	0	1	90	0.00	30.094 
00:30	41.1	41.1	41.1	81	35.7	0	1	90	0.00	30.095 
00:35	41.1	41.1	41.1	81	35.7	0	0	---	0.00	30.095 
00:40	41.1	41.1	41.1	82	36.0	0	0	---	0.00	30.095 
00:45	40.9	40.9	40.9	82	35.8	0	0	---	0.00	30.095 
00:50	40.8	40.8	40.8	83	36.0	0	0	---	0.00	30.095 
00:55	40.5	40.5	40.5	83	35.8	0	0	---	0.00	30.095 
01:00	40.3	40.3	40.3	83	35.6	0	0	---	0.00	30.098 
01:05	40.1	40.1	40.1	83	35.4	0	0	---	0.00	30.098 
01:10	39.9	39.9	39.9	84	35.5	0	0	---	0.00	30.098 
01:15	39.6	39.6	39.6	84	35.2	0	0	---	0.00	30.093 
01:20	39.3	39.3	39.3	84	34.9	0	0	---	0.00	30.093 
01:25	39.2	39.2	39.2	85	35.1	0	0	---	0.00	30.093 
01:30	39.1	39.1	39.1	85	35.0	0	0	---	0.00	30.090 
01:35	38.8	38.8	38.8	86	35.0	0	0	---	0.00	30.090 
01:40	38.5	38.5	38.5	86	34.7	0	0	---	0.00	30.090 
01:45	38.3	38.3	38.3	86	34.5	0	0	---	0.00	30.096 
01:50	38.0	38.0	38.0	87	34.5	0	0	---	0.00	30.096 
01:55	37.8	37.8	37.8	87	34.3	0	0	---	0.00	30.096 
02:00	37.6	37.6	37.6	88	34.4	0	0	---	0.00	30.099 
02:05	37.6	37.6	37.6	88	34.4	0	0	---	0.00	30.099 
02:10	38.0	38.0	38.0	90	35.3	0	0	---	0.00	30.099 
02:15	38.6	38.6	38.6	91	36.2	0	0	---	0.00	30.098 
02:20	39.1	39.1	39.1	91	36.7	0	0	---	0.00	30.098 
02:25	39.3	39.3	39.3	91	36.9	0	0	---	0.00	30.098 
02:30	39.2	39.2	39.2	91	36.8	0	0	---	0.00	30.108 
02:35	39.2	39.2	39.2	91	36.8	0	0	---	0.00	30.108 
02:40	39.2	39.2	39.2	91	36.8	0	0	---	0.00	30.108 
02:45	39.1	39.1	39.1	91	36.7	0	0	---	0.00	30.114 
02:50	39.2	39.2	39.2	91	36.8	0	0	---	0.00	30.114 
02:55	39.2	39.2	39.2	91	36.8	0	1	90	0.00	30.114 
03:00	39.3	39.3	39.3	92	37.2	0	2	90	0.00	30.120 
03:05	39.3	39.3	39.3	92	37.2	0	1	90	0.00	30.120 
03:10	39.3	39.3	39.3	91	36.9	0	1	90	0.00	30.120 
03:15	39.2	39.2	39.2	91	36.8	0	1	90	0.00	30.119 
03:20	39.1	39.1	39.1	91	36.7	0	0	---	0.00	30.119 
03:25	38.8	38.8	38.8	91	36.4	0	0	---	0.00	30.119 
03:30	38.8	38.8	38.8	91	36.4	0	0	---	0.00	30.118 
03:35	38.6	38.6	38.6	92	36.5	0	1	90	0.00	30.118 
03:40	38.6	38.6	38.6	92	36.5	0	1	90	0.00	30.118 
03:45	38.5	38.5	38.5	92	36.4	0	1	90	0.00	30.121 
03:50	38.5	38.5	38.5	92	36.4	0	0	---	0.00	30.121 
03:55	38.2	38.2	38.2	91	35.8	0	0	---	0.00	30.121 
04:00	38.0	38.0	38.0	91	35.6	0	0	---	0.00	30.126 
04:05	37.9	37.9	37.9	91	35.5	0	0	---	0.00	30.126 
04:10	37.8	37.8	37.8	92	35.7	0	0	---	0.00	30.126 
04:15	37.6	37.6	37.6	92	35.5	0	0	---	0.00	30.129 
04:20	37.6	37.6	37.6	92	35.5	0	0	---	0.00	30.129 
04:25	37.5	37.5	37.5	92	35.4	0	0	---	0.00	30.129 
04:30	37.2	37.2	37.2	92	35.1	0	0	---	0.00	30.134 
04:35	37.2	37.2	37.2	92	35.1	0	1	90	0.00	30.134 
04:40	37.3	37.3	37.3	92	35.2	0	1	90	0.00	30.134 
04:45	37.8	37.8	37.8	93	36.0	0	1	90	0.00	30.140 
04:50	37.9	37.9	37.9	93	36.1	0	0	---	0.00	30.140 
04:55	37.9	37.9	37.9	93	36.1	0	1	90	0.00	30.140 
05:00	38.0	38.0	38.0	93	36.2	0	1	90	0.00	30.139 
05:05	38.2	38.2	38.2	93	36.4	0	2	90	0.00	30.139 
05:10	38.2	38.2	38.2	93	36.4	0	1	90	0.00	30.139 
05:15	38.2	38.2	38.2	93	36.4	0	2	90	0.00	30.147 
05:20	38.3	38.3	38.3	93	36.5	0	1	90	0.00	30.147 
05:25	38.3	38.3	38.3	93	36.5	0	2	90	0.00	30.147 
05:30	38.5	38.5	38.5	93	36.7	0	3	90	0.00	30.146 
05:35	38.5	38.5	38.5	93	36.7	0	2	90	0.00	30.146 
05:40	38.5	38.5	38.5	93	36.7	0	1	90	0.00	30.146 
05:45	38.3	38.3	38.3	93	36.5	0	1	90	0.00	30.151 
05:50	38.2	38.2	38.2	93	36.4	0	1	90	0.00	30.151 
05:55	38.2	38.2	38.2	93	36.4	0	1	90	0.00	30.151 
06:00	38.0	38.0	38.0	93	36.2	0	1	90	0.00	30.154 
06:05	37.9	37.9	37.9	93	36.1	0	0	---	0.00	30.154 
06:10	37.6	37.6	37.6	93	35.8	0	0	---	0.00	30.154 
06:15	37.5	37.5	37.5	93	35.7	0	0	---	0.00	30.157 
06:20	37.5	37.5	37.5	93	35.7	0	3	90	0.00	30.157 
06:25	37.3	37.3	37.3	93	35.5	0	2	90	0.00	30.157 
06:30	37.3	37.3	37.3	93	35.5	1	3	90	0.00	30.158 
06:35	37.2	37.2	37.2	93	35.4	1	4	90	0.00	30.158 
06:40	37.2	37.2	37.2	93	35.4	0	3	90	0.00	30.158 
06:45	37.2	37.2	37.2	93	35.4	1	3	90	0.00	30.165 
06:50	37.0	37.0	37.0	93	35.2	1	3	90	0.00	30.165 
06:55	37.0	37.0	37.0	93	35.2	0	2	90	0.00	30.165 
07:00	36.9	36.9	36.9	93	35.1	0	3	90	0.00	30.169 
07:05	36.9	36.9	36.9	93	35.1	1	2	90	0.00	30.169 
07:10	36.8	36.8	36.8	93	35.0	0	3	90	0.00	30.169 
07:15	36.6	36.6	36.6	93	34.8	1	2	90	0.00	30.176 
07:20	36.5	36.5	36.5	93	34.7	1	3	90	0.00	30.176 
07:25	36.3	36.3	36.3	93	34.5	0	3	90	0.00	30.176 
07:30	36.2	36.2	36.2	93	34.4	0	3	90	0.00	30.180 
07:35	36.2	36.2	36.2	93	34.4	0	1	90	0.00	30.180 
07:40	36.0	36.0	36.0	93	34.2	0	2	90	0.00	30.180 
07:45	36.0	36.0	36.0	93	34.2	0	2	90	0.00	30.184 
07:50	36.0	36.0	36.0	94	34.4	0	2	90	0.00	30.184 
07:55	35.9	35.9	35.9	94	34.3	1	3	90	0.00	30.184 
08:00	36.0	36.0	36.0	94	34.4	1	3	90	0.00	30.187 
08:05	36.2	36.2	36.2	94	34.6	1	4	90	0.00	30.187 
08:10	36.3	36.3	36.3	94	34.7	1	3	90	0.00	30.187 
08:15	36.5	36.5	36.5	94	34.9	0	2	90	0.00	30.192 
08:20	36.8	36.8	36.8	94	35.2	0	2	90	0.00	30.192 
08:25	36.9	36.9	36.9	94	35.3	1	3	90	0.00	30.192 
08:30	37.2	37.2	37.2	94	35.6	1	4	90	0.00	30.195 
08:35	37.3	37.3	37.3	93	35.5	2	7	90	0.00	30.195 
08:40	37.5	37.5	37.5	93	35.7	2	7	90	0.00	30.195 
08:45	37.6	37.6	37.6	93	35.8	0	3	112	0.00	30.192 
08:50	37.9	37.9	37.9	93	36.1	0	2	112	0.00	30.192 
08:55	38.3	38.3	38.3	93	36.5	0	2	112	0.00	30.192 
09:00	38.9	38.9	38.9	93	37.1	1	5	112	0.00	30.193 
09:05	39.3	39.3	39.3	92	37.2	2	4	112	0.00	30.193 
09:10	39.8	39.8	39.8	91	37.4	1	3	90	0.00	30.193 
09:15	40.5	40.5	40.5	90	37.8	1	3	90	0.00	30.194 
09:20	41.2	41.2	41.2	89	38.2	0	2	90	0.00	30.194 
09:25	41.8	41.8	41.8	87	38.2	1	4	90	0.00	30.194 
09:30	41.8	41.8	41.8	85	37.6	2	4	90	0.00	30.198 
09:35	41.8	41.8	41.8	85	37.6	2	5	90	0.00	30.198 
09:40	41.9	41.9	41.9	85	37.7	2	5	90	0.00	30.198 
09:45	42.2	42.2	42.2	84	37.7	1	6	90	0.00	30.201 
09:50	42.6	42.6	42.6	84	38.1	1	5	112	0.00	30.201 
09:55	42.9	42.9	42.9	83	38.1	2	4	112	0.00	30.201 
10:00	43.2	43.2	43.2	82	38.1	2	4	68	0.00	30.202 
10:05	43.5	43.5	43.5	81	38.1	1	4	68	0.00	30.202 
10:10	43.9	43.9	43.9	81	38.5	1	4	90	0.00	30.202 
10:15	44.2	44.2	44.2	81	38.7	2	4	90	0.00	30.206 
10:20	44.5	44.5	44.5	78	38.1	2	6	112	0.00	30.206 
10:25	45.1	45.1	45.1	78	38.7	2	5	112	0.00	30.206 
10:30	45.4	45.4	45.4	77	38.6	2	7	112	0.00	30.206 
10:35	45.7	45.7	45.7	76	38.6	3	6	90	0.00	30.206 
10:40	46.2	46.2	46.2	75	38.7	2	5	90	0.00	30.206 
10:45	46.7	46.7	46.7	74	38.9	3	9	90	0.00	30.203 
10:50	47.0	47.0	47.0	73	38.8	2	6	112	0.00	30.203 
10:55	47.4	47.4	47.4	73	39.2	1	5	112	0.00	30.203 
11:00	48.0	48.0	48.0	71	39.1	2	7	68	0.00	30.204 
11:05	48.5	48.5	48.5	71	39.5	2	4	112	0.00	30.204 
11:10	48.9	48.9	48.9	69	39.2	3	6	112	0.00	30.204 
11:15	49.5	49.5	49.5	68	39.4	2	6	90	0.00	30.205 
11:20	50.2	50.2	50.2	68	40.1	1	4	112	0.00	30.205 
11:25	50.7	50.7	50.7	65	39.4	2	6	112	0.00	30.205 
11:30	51.3	51.3	51.3	64	39.5	2	5	90	0.00	30.203 
11:35	51.7	51.7	51.7	61	38.7	3	5	90	0.00	30.203 
11:40	52.5	52.5	52.5	59	38.6	2	4	90	0.00	30.203 
11:45	53.1	53.1	53.1	58	38.7	2	5	112	0.00	30.196 
11:50	53.5	53.5	53.5	57	38.6	2	5	112	0.00	30.196 
11:55	53.8	53.8	53.8	56	38.5	2	5	90	0.00	30.196 
12:00	54.4	54.4	54.4	56	39.0	2	4	90	0.00	30.186 
12:05	54.7	54.7	54.7	54	38.4	2	5	90	0.00	30.186 
12:10	55.1	55.1	55.1	53	38.3	2	5	112	0.00	30.186 
12:15	55.6	55.6	55.6	52	38.3	2	7	90	0.00	30.184 
12:20	55.9	55.9	55.9	52	38.5	3	6	112	0.00	30.184 
12:25	56.3	56.3	56.3	51	38.4	2	6	90	0.00	30.184 
12:30	56.9	56.9	56.9	50	38.5	2	5	112	0.00	30.182 
12:35	57.5	57.5	57.5	50	39.0	2	5	90	0.00	30.182 
12:40	57.8	57.8	57.8	49	38.8	3	7	90	0.00	30.182 
12:45	58.1	58.1	58.1	47	38.0	4	7	112	0.00	30.175 
12:50	58.3	58.3	58.3	47	38.2	3	7	90	0.00	30.175 
12:55	58.6	58.6	58.6	48	39.0	2	7	90	0.00	30.175 
13:00	58.7	58.7	58.7	47	38.5	2	6	112	0.00	30.176 
13:05	59.0	59.0	59.0	46	38.2	2	9	112	0.00	30.176 
13:10	59.2	59.2	59.2	46	38.4	3	8	90	0.00	30.176 
13:15	59.2	59.2	59.2	46	38.4	3	8	90	0.00	30.181 
13:20	59.2	59.2	59.2	46	38.4	3	9	112	0.00	30.181 
13:25	59.3	59.3	59.3	46	38.5	3	10	90	0.00	30.181 
13:30	59.6	59.6	59.6	46	38.8	4	8	90	0.00	30.170 
13:35	59.8	59.8	59.8	46	39.0	3	7	90	0.00	30.170 
13:40	60.1	60.1	60.1	45	38.7	3	7	90	0.00	30.170 
13:45	60.4	60.4	60.4	45	39.0	2	7	68	0.00	30.167 
13:50	60.5	60.5	60.5	44	38.5	2	5	90	0.00	30.167 
13:55	60.7	60.7	60.7	44	38.7	3	5	90	0.00	30.167 
14:00	60.9	60.9	60.9	43	38.3	2	6	90	0.00	30.167 
14:05	61.0	61.0	61.0	43	38.3	2	4	90	0.00	30.167 
14:10	61.3	61.3	61.3	42	38.0	3	7	112	0.00	30.167 
14:15	61.6	61.6	61.6	42	38.3	2	6	112	0.00	30.164 
14:20	61.8	61.8	61.8	41	37.8	4	9	90	0.00	30.164 
14:25	62.0	62.0	62.0	41	38.0	3	5	112	0.00	30.164 
14:30	62.1	62.1	62.1	41	38.1	2	5	90	0.00	30.164 
14:35	62.3	62.3	62.3	40	37.7	3	7	112	0.00	30.164 
14:40	62.4	62.4	62.4	40	37.8	3	6	90	0.00	30.164 
14:45	62.6	62.6	62.6	40	37.9	2	7	90	0.00	30.165 
14:50	62.9	62.9	62.9	38	36.9	2	9	90	0.00	30.165 
14:55	63.1	63.1	63.1	38	37.1	3	5	90	0.00	30.165 
15:00	63.1	63.1	63.1	38	37.1	3	6	90	0.00	30.168 
15:05	63.1	63.1	63.1	38	37.1	3	10	90	0.00	30.168 
15:10	63.1	63.1	63.1	38	37.1	3	7	90	0.00	30.168 
15:15	63.1	63.1	63.1	38	37.1	2	5	90	0.00	30.174 
15:20	62.9	62.9	62.9	38	36.9	2	7	68	0.00	30.174 
15:25	62.7	62.7	62.7	39	37.4	2	5	90	0.00	30.174 
15:30	62.4	62.4	62.4	39	37.1	2	5	68	0.00	30.178 
15:35	62.3	62.3	62.3	40	37.7	1	4	68	0.00	30.178 
15:40	62.1	62.1	62.1	39	36.8	3	6	90	0.00	30.178 
15:45	62.0	62.0	62.0	40	37.4	2	5	112	0.00	30.179 
15:50	61.8	61.8	61.8	41	37.8	2	4	112	0.00	30.179 
15:55	61.6	61.6	61.6	41	37.7	2	6	90	0.00	30.179 
16:00	61.3	61.3	61.3	42	38.0	3	5	112	0.00	30.178 
16:05	61.2	61.2	61.2	43	38.5	2	5	135	0.00	30.178 
16:10	60.9	60.9	60.9	43	38.3	2	5	90	0.00	30.178 
16:15	60.7	60.7	60.7	43	38.1	3	6	90	0.00	30.180 
16:20	60.7	60.7	60.7	43	38.1	2	6	90	0.00	30.180 
16:25	60.7	60.7	60.7	43	38.1	2	6	112	0.00	30.180 
16:30	60.5	60.5	60.5	43	37.9	2	6	90	0.00	30.182 
16:35	60.5	60.5	60.5	44	38.5	2	5	112	0.00	30.182 
16:40	60.4	60.4	60.4	44	38.4	2	7	90	0.00	30.182 
16:45	60.1	60.1	60.1	45	38.7	2	6	90	0.00	30.184 
16:50	59.8	59.8	59.8	45	38.4	2	4	90	0.00	30.184 
16:55	59.6	59.6	59.6	45	38.2	2	6	90	0.00	30.184 
17:00	59.3	59.3	59.3	46	38.5	1	5	90	0.00	30.187 
17:05	59.0	59.0	59.0	47	38.8	1	4	90	0.00	30.187 
17:10	58.7	58.7	58.7	48	39.1	1	4	90	0.00	30.187 
17:15	58.4	58.4	58.4	48	38.8	1	4	90	0.00	30.195 
17:20	58.0	58.0	58.0	49	38.9	1	3	90	0.00	30.195 
17:25	57.6	57.6	57.6	50	39.1	0	2	90	0.00	30.195 
17:30	57.3	57.3	57.3	50	38.8	0	2	90	0.00	30.199 
17:35	57.0	57.0	57.0	51	39.1	0	1	90	0.00	30.199 
17:40	56.6	56.6	56.6	52	39.2	0	2	90	0.00	30.199 
17:45	56.3	56.3	56.3	52	38.9	0	2	90	0.00	30.200 
17:50	55.9	55.9	55.9	53	39.0	0	0	---	0.00	30.200 
17:55	55.4	55.4	55.4	54	39.0	0	2	90	0.00	30.200 
18:00	55.1	55.1	55.1	54	38.8	1	2	90	0.00	30.203 
18:05	54.8	54.8	54.8	54	38.5	0	2	90	0.00	30.203 
18:10	54.7	54.7	54.7	54	38.4	0	2	90	0.00	30.203 
18:15	54.5	54.5	54.5	54	38.2	1	2	90	0.00	30.202 
18:20	54.2	54.2	54.2	55	38.4	1	4	90	0.00	30.202 
18:25	54.1	54.1	54.1	55	38.3	1	3	90	0.00	30.202 
18:30	53.9	53.9	53.9	55	38.1	2	4	90	0.00	30.205 
18:35	53.8	53.8	53.8	54	37.5	2	4	90	0.00	30.205 
18:40	53.6	53.6	53.6	54	37.4	1	5	112	0.00	30.205 
18:45	53.3	53.3	53.3	55	37.5	1	3	112	0.00	30.217 
18:50	53.1	53.1	53.1	55	37.4	1	4	112	0.00	30.217 
18:55	52.8	52.8	52.8	56	37.5	1	3	90	0.00	30.217 
19:00	52.5	52.5	52.5	57	37.7	1	3	68	0.00	30.218 
19:05	52.2	52.2	52.2	58	37.9	1	3	68	0.00	30.218 
19:10	52.0	52.0	52.0	59	38.1	0	2	68	0.00	30.218 
19:15	51.7	51.7	51.7	61	38.7	0	2	68	0.00	30.231 
19:20	51.3	51.3	51.3	62	38.7	0	2	68	0.00	30.231 
19:25	51.0	51.0	51.0	63	38.9	0	1	68	0.00	30.231 
19:30	50.5	50.5	50.5	64	38.8	0	1	68	0.00	30.239 
19:35	50.1	50.1	50.1	65	38.8	0	1	68	0.00	30.239 
19:40	49.6	49.6	49.6	65	38.3	0	0	---	0.00	30.239 
19:45	49.2	49.2	49.2	65	37.9	0	0	---	0.00	30.243 
19:50	48.5	48.5	48.5	68	38.4	0	1	68	0.00	30.243 
19:55	48.0	48.0	48.0	71	39.1	0	1	68	0.00	30.243 
20:00	47.7	47.7	47.7	72	39.1	0	1	68	0.00	30.242 
20:05	47.6	47.6	47.6	72	39.0	1	3	68	0.00	30.242 
20:10	47.4	47.4	47.4	73	39.2	0	3	68	0.00	30.242 
20:15	47.3	47.3	47.3	73	39.1	0	1	68	0.00	30.242 
20:20	47.1	47.1	47.1	75	39.6	1	4	68	0.00	30.242 
20:25	47.1	47.1	47.1	76	39.9	2	5	90	0.00	30.242 
20:30	47.0	47.0	47.0	76	39.8	1	2	68	0.00	30.244 
20:35	46.7	46.7	46.7	77	39.9	1	3	68	0.00	30.244 
20:40	46.5	46.5	46.5	78	40.0	0	1	68	0.00	30.244 
20:45	46.4	46.4	46.4	79	40.2	1	5	68	0.00	30.256 
20:50	46.2	46.2	46.2	79	40.1	1	5	68	0.00	30.256 
20:55	46.1	46.1	46.1	80	40.3	2	4	68	0.00	30.256 
21:00	45.8	45.8	45.8	80	40.0	2	4	68	0.00	30.256 
21:05	45.7	45.7	45.7	81	40.2	2	5	68	0.00	30.256 
21:10	45.5	45.5	45.5	82	40.3	2	5	68	0.00	30.256 
21:15	45.4	45.4	45.4	82	40.2	1	4	90	0.00	30.253 
21:20	45.2	45.2	45.2	83	40.3	0	2	90	0.00	30.253 
21:25	45.1	45.1	45.1	83	40.3	0	1	90	0.00	30.253 
21:30	44.8	44.8	44.8	84	40.3	0	1	90	0.00	30.262 
21:35	44.6	44.6	44.6	84	40.1	0	1	90	0.00	30.262 
21:40	44.3	44.3	44.3	84	39.8	0	1	90	0.00	30.262 
21:45	44.2	44.2	44.2	85	40.0	1	2	90	0.00	30.260 
21:50	44.1	44.1	44.1	85	39.9	1	3	90	0.00	30.260 
21:55	44.1	44.1	44.1	85	39.9	1	2	90	0.00	30.260 
22:00	43.8	43.8	43.8	86	39.9	1	4	90	0.00	30.260 
22:05	43.8	43.8	43.8	87	40.2	2	4	112	0.00	30.260 
22:10	43.8	43.8	43.8	87	40.2	2	5	112	0.00	30.260 
22:15	43.6	43.6	43.6	88	40.3	1	4	90	0.00	30.256 
22:20	43.6	43.6	43.6	88	40.3	0	4	90	0.00	30.256 
22:25	43.5	43.5	43.5	88	40.2	1	4	90	0.00	30.256 
22:30	43.3	43.3	43.3	88	40.0	0	2	90	0.00	30.265 
22:35	43.2	43.2	43.2	89	40.2	0	3	90	0.00	30.265 
22:40	43.1	43.1	43.1	89	40.1	1	4	90	0.00	30.265 
22:45	43.1	43.1	43.1	89	40.1	1	2	90	0.00	30.266 
22:50	42.9	42.9	42.9	90	40.2	1	3	90	0.00	30.266 
22:55	42.8	42.8	42.8	90	40.1	0	2	90	0.00	30.266 
23:00	42.6	42.6	42.6	90	39.9	0	2	90	0.00	30.267 
23:05	42.6	42.6	42.6	90	39.9	0	1	90	0.00	30.267 
23:10	42.3	42.3	42.3	90	39.6	0	1	90	0.00	30.267 
23:15	42.1	42.1	42.1	90	39.4	0	0	---	0.00	30.265 
23:20	41.8	41.8	41.8	90	39.1	0	0	---	0.00	30.265 
23:25	41.6	41.6	41.6	91	39.2	0	0	---	0.00	30.265 
23:30	41.5	41.5	41.5	91	39.1	0	0	---	0.00	30.265 
23:35	41.2	41.2	41.2	91	38.8	0	0	---	0.00	30.265 
23:40	41.1	41.1	41.1	91	38.7	0	0	---	0.00	30.265 
23:45	40.9	40.9	40.9	91	38.5	0	1	90	0.00	30.275 
23:50	40.8	40.8	40.8	91	38.4	0	0	---	0.00	30.275 
23:55	40.6	40.6	40.6	92	38.5	0	0	---	0.00	30.275 

CoCoRaHS
IN-AL-39
A2 Web Hosting
Creative Commons License
GoDaddy
search engine by freefind advanced

loaded 2018-11-14 04:03:22 • last modified 2010-11-18 10:43:29
Privacy PolicyDisclaimer
• wx.awcolley.com is powered by PmWiki v.2002016 •
• all content (unless otherwise noted) © 2018 A W Colley